Time;durP1;ratioP1;P1;durP2;ratioP2;P2;SDS_P1;SDS_P2;PMS_P1;PMS_P2;Temp;Humidity;BMP_temperature;BMP_pressure;BME280_temperature;BME280_humidity;BME280_pressure;Samples;Min_cycle;Max_cycle;Signal;HPM_P1;HPM_P2
2021/06/09 00:00:43;;;;;;;27.55;24.58;;;18.20;99.90;;;;;;6244478;28;20053;-79
2021/06/09 00:03:46;;;;;;;34.33;22.40;;;18.30;99.90;;;;;;6242827;28;20045;-79
2021/06/09 00:06:47;;;;;;;25.73;21.77;;;18.30;99.90;;;;;;6243146;28;20560;-79
2021/06/09 00:09:48;;;;;;;21.88;19.77;;;18.30;99.90;;;;;;6243400;28;20046;-79
2021/06/09 00:12:50;;;;;;;20.35;18.15;;;18.30;99.90;;;;;;6241557;28;20073;-79
2021/06/09 00:15:52;;;;;;;27.75;22.90;;;18.40;99.90;;;;;;6242096;28;20508;-79
2021/06/09 00:18:54;;;;;;;24.20;21.77;;;18.40;99.90;;;;;;6243009;28;20364;-79
2021/06/09 00:21:56;;;;;;;24.90;22.33;;;18.40;99.90;;;;;;6243388;28;20049;-79
2021/06/09 00:24:58;;;;;;;26.67;23.98;;;18.40;99.90;;;;;;6243715;28;20065;-79
2021/06/09 00:27:59;;;;;;;25.80;22.92;;;18.40;99.90;;;;;;6243945;28;20160;-79
2021/06/09 00:31:02;;;;;;;23.38;21.10;;;18.40;99.90;;;;;;6241994;28;20061;-78
2021/06/09 00:34:04;;;;;;;27.05;24.42;;;18.40;99.90;;;;;;6243006;28;20049;-79
2021/06/09 00:37:06;;;;;;;26.23;23.42;;;18.40;99.90;;;;;;6243063;28;20050;-79
2021/06/09 00:40:09;;;;;;;24.13;21.63;;;18.40;99.90;;;;;;6241622;28;20054;-78
2021/06/09 00:43:12;;;;;;;25.60;22.52;;;18.30;99.90;;;;;;6241341;28;20113;-78
2021/06/09 00:46:14;;;;;;;26.20;23.42;;;18.30;99.90;;;;;;6249323;28;20101;-79
2021/06/09 00:49:16;;;;;;;26.38;22.40;;;18.30;99.90;;;;;;6263177;28;20049;-80
2021/06/09 00:52:22;;;;;;;25.55;22.98;;;18.20;99.90;;;;;;6264975;28;20081;-79
2021/06/09 00:55:24;;;;;;;30.95;24.95;;;18.20;99.90;;;;;;6262396;28;20042;-79
2021/06/09 00:58:26;;;;;;;24.25;21.65;;;18.20;99.90;;;;;;6261730;28;20494;-80
2021/06/09 01:01:29;;;;;;;24.73;22.13;;;18.20;99.90;;;;;;6261215;28;20095;-81
2021/06/09 01:04:32;;;;;;;23.08;20.67;;;18.10;99.90;;;;;;6260141;28;20050;-81
2021/06/09 01:07:37;;;;;;;23.63;21.13;;;18.10;99.90;;;;;;6260251;28;20042;-82
2021/06/09 01:10:38;;;;;;;26.05;22.58;;;18.00;99.90;;;;;;6259995;28;20135;-79
2021/06/09 01:13:40;;;;;;;26.35;23.55;;;17.90;99.90;;;;;;6262862;28;20041;-80
2021/06/09 01:16:41;;;;;;;29.23;23.90;;;17.90;99.90;;;;;;6263608;28;20056;-80
2021/06/09 01:19:44;;;;;;;26.25;23.42;;;17.90;99.90;;;;;;6262208;28;20144;-79
2021/06/09 01:22:46;;;;;;;29.70;26.02;;;17.90;99.90;;;;;;6261604;28;20041;-79
2021/06/09 01:25:49;;;;;;;28.45;23.20;;;17.90;99.90;;;;;;6262492;28;20112;-80
2021/06/09 01:28:53;;;;;;;26.73;23.92;;;17.90;99.90;;;;;;6263301;28;20052;-80
2021/06/09 01:31:54;;;;;;;27.13;23.90;;;17.90;99.90;;;;;;6262615;28;20053;-80
2021/06/09 01:34:56;;;;;;;29.27;23.67;;;17.90;99.90;;;;;;6262003;28;20037;-79
2021/06/09 01:37:59;;;;;;;25.90;23.20;;;17.80;99.90;;;;;;6260565;28;20060;-80
2021/06/09 01:41:01;;;;;;;28.58;24.45;;;17.80;99.90;;;;;;6262755;28;20474;-80
2021/06/09 01:44:03;;;;;;;28.30;23.58;;;17.80;99.90;;;;;;6264430;28;20053;-80
2021/06/09 01:47:04;;;;;;;30.70;23.05;;;17.80;99.90;;;;;;6261886;28;20068;-79
2021/06/09 01:50:09;;;;;;;27.05;21.88;;;17.80;99.90;;;;;;6263537;28;20080;-80
2021/06/09 01:53:11;;;;;;;25.35;22.60;;;17.80;99.90;;;;;;6260883;28;20052;-79
2021/06/09 01:56:14;;;;;;;26.00;23.38;;;17.80;99.90;;;;;;6261059;28;20045;-80
2021/06/09 01:59:17;;;;;;;26.75;24.10;;;17.70;99.90;;;;;;6261777;28;20092;-79
2021/06/09 02:02:19;;;;;;;25.92;21.90;;;17.70;99.90;;;;;;6261159;28;20065;-80
2021/06/09 02:05:20;;;;;;;25.65;22.95;;;17.60;99.90;;;;;;6261740;28;20053;-79
2021/06/09 02:08:23;;;;;;;22.45;20.23;;;17.60;99.90;;;;;;6261348;28;20081;-80
2021/06/09 02:11:24;;;;;;;25.10;22.70;;;17.70;99.90;;;;;;6261032;28;20049;-79
2021/06/09 02:14:26;;;;;;;25.10;19.85;;;17.70;99.90;;;;;;6260705;28;20068;-80
2021/06/09 02:17:27;;;;;;;22.92;20.50;;;17.60;99.90;;;;;;6260367;28;20068;-80
2021/06/09 02:20:29;;;;;;;22.42;20.10;;;17.60;99.90;;;;;;6260354;28;20052;-79
2021/06/09 02:23:34;;;;;;;24.05;21.63;;;17.60;99.90;;;;;;6258908;28;20579;-77
2021/06/09 02:26:37;;;;;;;24.88;22.13;;;17.60;99.90;;;;;;6260354;28;20131;-79
2021/06/09 02:29:38;;;;;;;29.35;24.52;;;17.50;99.90;;;;;;6262227;28;20072;-78
2021/06/09 02:32:42;;;;;;;26.05;23.35;;;17.50;99.90;;;;;;6260441;28;20077;-78
2021/06/09 02:35:45;;;;;;;23.65;21.23;;;17.50;99.90;;;;;;6261772;28;20068;-79
2021/06/09 02:38:48;;;;;;;26.15;23.52;;;17.50;99.90;;;;;;6257322;28;20073;-80
2021/06/09 02:41:50;;;;;;;26.42;23.40;;;17.50;99.90;;;;;;6256359;28;20053;-79
2021/06/09 02:44:51;;;;;;;29.27;24.35;;;17.50;99.90;;;;;;6259695;28;20091;-78
2021/06/09 02:47:55;;;;;;;27.95;24.98;;;17.50;99.90;;;;;;6260102;28;20056;-78
2021/06/09 02:51:00;;;;;;;26.23;23.55;;;17.50;99.90;;;;;;6263595;28;20045;-79
2021/06/09 02:54:10;;;;;;;29.75;24.27;;;17.50;99.90;;;;;;6263693;28;20046;-79
2021/06/09 02:57:21;;;;;;;30.73;25.67;;;17.50;99.90;;;;;;6263127;28;20415;-79
2021/06/09 03:00:29;;;;;;;29.88;23.73;;;17.50;99.90;;;;;;6263162;28;20514;-79
2021/06/09 03:03:42;;;;;;;26.77;24.13;;;17.50;99.90;;;;;;6261747;28;20424;-79
2021/06/09 03:06:55;;;;;;;26.98;24.13;;;17.40;99.90;;;;;;6262366;28;20045;-78
2021/06/09 03:10:05;;;;;;;26.05;23.38;;;17.50;99.90;;;;;;6262189;28;20569;-79
2021/06/09 03:13:13;;;;;;;24.38;21.77;;;17.40;99.90;;;;;;6260935;28;20062;-78
2021/06/09 03:16:20;;;;;;;26.17;23.02;;;17.40;99.90;;;;;;6263700;28;20095;-79
2021/06/09 03:19:24;;;;;;;32.47;27.30;;;17.40;99.90;;;;;;6261734;28;20068;-79
2021/06/09 03:22:32;;;;;;;24.95;21.75;;;17.40;99.90;;;;;;6261633;28;20091;-78
2021/06/09 03:25:43;;;;;;;26.23;23.50;;;17.40;99.90;;;;;;6261998;28;20080;-78
2021/06/09 03:28:52;;;;;;;24.42;21.92;;;17.40;99.90;;;;;;6261060;28;20383;-79
2021/06/09 03:31:56;;;;;;;24.20;20.63;;;17.40;99.90;;;;;;6235285;28;20050;-79
2021/06/09 03:35:01;;;;;;;23.38;20.92;;;17.40;99.90;;;;;;6238429;28;20056;-79
2021/06/09 03:38:06;;;;;;;21.25;19.05;;;17.30;99.90;;;;;;6230399;28;20601;-78
2021/06/09 03:41:13;;;;;;;19.10;17.02;;;17.40;99.90;;;;;;6228159;28;20117;-78
2021/06/09 03:44:17;;;;;;;19.42;17.42;;;17.50;99.90;;;;;;6230940;28;20559;-78
2021/06/09 03:47:20;;;;;;;20.42;18.33;;;17.50;99.90;;;;;;6232564;28;20129;-78
2021/06/09 03:50:24;;;;;;;21.80;19.50;;;17.50;99.90;;;;;;6231613;28;20076;-79
2021/06/09 03:53:28;;;;;;;21.65;18.92;;;17.50;99.90;;;;;;6233027;28;20049;-79
2021/06/09 03:56:33;;;;;;;21.98;19.67;;;17.50;99.90;;;;;;6235262;28;20124;-80
2021/06/09 03:59:35;;;;;;;22.02;19.65;;;17.50;99.90;;;;;;6229696;28;20080;-78
2021/06/09 04:02:41;;;;;;;20.67;17.58;;;17.50;99.90;;;;;;6230057;28;20105;-78
2021/06/09 04:05:43;;;;;;;23.48;17.98;;;17.70;99.90;;;;;;6233812;28;20137;-78
2021/06/09 04:08:46;;;;;;;17.60;15.75;;;17.80;99.90;;;;;;6224641;28;20136;-78
2021/06/09 04:11:52;;;;;;;21.65;17.60;;;17.90;99.90;;;;;;6226718;28;20042;-79
2021/06/09 04:14:55;;;;;;;24.83;20.00;;;18.10;99.90;;;;;;6228259;28;20507;-76
2021/06/09 04:17:59;;;;;;;19.98;17.75;;;18.10;99.90;;;;;;6222354;28;20570;-79
2021/06/09 04:21:01;;;;;;;24.65;22.05;;;18.20;99.90;;;;;;6222595;28;20053;-78
2021/06/09 04:24:03;;;;;;;25.85;22.50;;;18.30;99.90;;;;;;6223655;28;20053;-78
2021/06/09 04:27:09;;;;;;;24.92;20.38;;;18.40;99.90;;;;;;6224558;28;20120;-78
2021/06/09 04:30:12;;;;;;;30.05;21.45;;;18.50;99.90;;;;;;6222031;28;20172;-78
2021/06/09 04:33:13;;;;;;;22.77;19.98;;;18.60;99.90;;;;;;6224562;28;20081;-78
2021/06/09 04:36:16;;;;;;;24.92;22.23;;;18.70;99.90;;;;;;6225924;28;20053;-78
2021/06/09 04:39:17;;;;;;;30.65;25.05;;;18.80;99.90;;;;;;6227856;28;20046;-78
2021/06/09 04:42:21;;;;;;;26.08;22.52;;;18.70;99.90;;;;;;6228141;28;20076;-78
2021/06/09 04:45:24;;;;;;;24.60;22.10;;;18.70;99.90;;;;;;6228709;28;20046;-79
2021/06/09 04:48:26;;;;;;;29.90;23.63;;;18.80;99.90;;;;;;6229092;28;20128;-78
2021/06/09 04:51:32;;;;;;;24.45;22.05;;;18.80;99.90;;;;;;6227669;28;20132;-78
2021/06/09 04:54:34;;;;;;;26.75;23.92;;;18.80;99.90;;;;;;6228926;28;20049;-79
2021/06/09 04:57:37;;;;;;;24.98;22.48;;;18.90;99.90;;;;;;6228295;28;20046;-78
2021/06/09 05:00:39;;;;;;;26.48;23.58;;;18.90;99.90;;;;;;6228698;28;20058;-79
2021/06/09 05:03:40;;;;;;;25.90;22.73;;;19.00;99.90;;;;;;6227988;28;20046;-78
2021/06/09 05:06:42;;;;;;;25.83;23.10;;;18.90;99.90;;;;;;6227774;28;20132;-78
2021/06/09 05:09:43;;;;;;;24.83;22.38;;;19.00;99.90;;;;;;6227696;28;20132;-79
2021/06/09 05:12:56;;;;;;;26.10;22.52;;;19.00;99.90;;;;;;6229280;28;20132;-78
2021/06/09 05:16:01;;;;;;;24.73;22.00;;;19.10;99.90;;;;;;6227981;28;20045;-78
2021/06/09 05:19:03;;;;;;;20.73;18.40;;;19.20;99.90;;;;;;6231857;28;20065;-79
2021/06/09 05:22:07;;;;;;;26.05;21.65;;;19.40;99.90;;;;;;6230011;28;20054;-79
2021/06/09 05:25:09;;;;;;;23.90;19.95;;;19.50;99.90;;;;;;6230260;28;20464;-79
2021/06/09 05:28:14;;;;;;;22.60;19.20;;;19.60;99.90;;;;;;6228424;28;20091;-79
2021/06/09 05:31:17;;;;;;;19.85;18.05;;;19.70;99.90;;;;;;6228152;28;20100;-79
2021/06/09 05:34:20;;;;;;;21.27;17.27;;;19.80;99.90;;;;;;6227099;28;20133;-79
2021/06/09 05:37:22;;;;;;;18.55;16.75;;;19.90;99.90;;;;;;6228253;28;20108;-78
2021/06/09 05:40:23;;;;;;;16.85;15.10;;;20.10;99.90;;;;;;6229682;28;20188;-79
2021/06/09 05:43:28;;;;;;;19.02;17.00;;;20.20;99.90;;;;;;6229459;28;20048;-78
2021/06/09 05:46:29;;;;;;;16.95;15.32;;;20.40;99.90;;;;;;6226927;28;20057;-78
2021/06/09 05:49:31;;;;;;;16.92;14.88;;;20.50;99.90;;;;;;6227362;28;20042;-79
2021/06/09 05:52:32;;;;;;;16.23;14.57;;;20.60;99.90;;;;;;6227142;28;20144;-78
2021/06/09 05:55:35;;;;;;;17.70;15.73;;;20.70;99.90;;;;;;6225597;28;20113;-78
2021/06/09 05:58:38;;;;;;;18.45;16.02;;;20.80;99.90;;;;;;6224646;28;20129;-79
2021/06/09 06:01:41;;;;;;;18.40;16.05;;;20.90;99.90;;;;;;6225372;28;20041;-79
2021/06/09 06:04:42;;;;;;;20.35;14.52;;;21.00;99.90;;;;;;6216084;28;20141;-78
2021/06/09 06:07:44;;;;;;;16.98;14.38;;;21.30;99.90;;;;;;6221517;28;20053;-78
2021/06/09 06:10:46;;;;;;;22.10;14.88;;;21.60;99.90;;;;;;6205028;28;20046;-79
2021/06/09 06:13:49;;;;;;;17.30;15.63;;;21.70;99.90;;;;;;6212994;28;20129;-78
2021/06/09 06:16:51;;;;;;;15.60;14.15;;;22.20;99.10;;;;;;6227815;28;20125;-78
2021/06/09 06:19:53;;;;;;;15.98;14.38;;;22.90;96.80;;;;;;6228034;28;20137;-80
2021/06/09 06:22:55;;;;;;;13.80;12.48;;;23.60;95.20;;;;;;6228217;28;20086;-79
2021/06/09 06:25:57;;;;;;;14.63;13.20;;;24.30;92.90;;;;;;6227809;28;20077;-78
2021/06/09 06:29:00;;;;;;;13.77;12.48;;;24.60;91.10;;;;;;6226797;28;20049;-78
2021/06/09 06:32:04;;;;;;;13.23;11.85;;;24.80;90.00;;;;;;6225997;28;20065;-79
2021/06/09 06:35:07;;;;;;;15.95;12.02;;;25.00;87.90;;;;;;6226760;28;20046;-78
2021/06/09 06:38:08;;;;;;;12.70;11.57;;;25.40;85.50;;;;;;6229026;28;20129;-79
2021/06/09 06:41:10;;;;;;;14.15;12.63;;;25.50;83.10;;;;;;6203960;28;20061;-78
2021/06/09 06:44:13;;;;;;;12.55;11.25;;;25.80;81.40;;;;;;6203212;28;20050;-78
2021/06/09 06:47:18;;;;;;;12.23;11.23;;;26.00;78.70;;;;;;6202836;28;20424;-78
2021/06/09 06:50:21;;;;;;;13.27;11.90;;;26.00;77.00;;;;;;6221284;23;20520;-75
2021/06/09 06:53:22;;;;;;;13.48;12.35;;;26.10;77.20;;;;;;6223331;28;20042;-77
2021/06/09 06:56:25;;;;;;;12.68;11.50;;;26.00;76.70;;;;;;6225510;28;20123;-76
2021/06/09 06:59:28;;;;;;;14.88;12.00;;;25.80;76.20;;;;;;6224130;28;20533;-77
2021/06/09 07:02:30;;;;;;;13.20;11.98;;;25.60;74.60;;;;;;6225604;28;20181;-77
2021/06/09 07:05:33;;;;;;;13.30;11.02;;;25.60;74.40;;;;;;6226458;28;20042;-77
2021/06/09 07:08:37;;;;;;;12.75;11.60;;;25.50;74.60;;;;;;6224937;28;20057;-75
2021/06/09 07:11:41;;;;;;;14.38;12.98;;;25.60;73.20;;;;;;6222961;28;20478;-76
2021/06/09 07:14:44;;;;;;;13.18;11.93;;;25.50;73.40;;;;;;6222332;28;20042;-76
2021/06/09 07:17:48;;;;;;;13.93;12.55;;;25.60;72.70;;;;;;6223979;28;20128;-77
2021/06/09 07:20:49;;;;;;;12.32;11.13;;;25.70;72.10;;;;;;6223501;28;20096;-76
2021/06/09 07:23:51;;;;;;;15.25;13.77;;;26.00;72.30;;;;;;6223178;28;20060;-77
2021/06/09 07:26:53;;;;;;;16.33;14.82;;;26.40;70.70;;;;;;6222489;28;20514;-77
2021/06/09 07:29:57;;;;;;;16.65;15.07;;;26.40;69.70;;;;;;6222179;28;20092;-77
2021/06/09 07:33:01;;;;;;;15.60;13.25;;;26.20;70.10;;;;;;6222684;28;20088;-77
2021/06/09 07:36:06;;;;;;;14.18;12.80;;;26.20;70.30;;;;;;6223714;28;20550;-77
2021/06/09 07:39:11;;;;;;;14.48;13.07;;;26.50;70.40;;;;;;6223656;28;20061;-76
2021/06/09 07:42:16;;;;;;;17.00;15.30;;;26.70;68.80;;;;;;6223649;28;20053;-77
2021/06/09 07:45:21;;;;;;;16.00;14.30;;;27.00;68.10;;;;;;6223914;28;20587;-76
2021/06/09 07:48:25;;;;;;;14.98;13.50;;;27.20;67.40;;;;;;6223848;28;20096;-77
2021/06/09 07:51:27;;;;;;;18.75;13.75;;;27.50;67.10;;;;;;6222613;28;20065;-77
2021/06/09 07:54:28;;;;;;;13.98;12.63;;;27.70;65.90;;;;;;6224337;28;20181;-77
2021/06/09 07:57:33;;;;;;;14.35;12.45;;;27.90;65.30;;;;;;6224621;28;20109;-77
2021/06/09 08:00:36;;;;;;;19.67;15.10;;;28.00;64.10;;;;;;6224639;28;20049;-77
2021/06/09 08:03:39;;;;;;;18.83;13.07;;;28.20;62.90;;;;;;6224863;28;20486;-77
2021/06/09 08:06:43;;;;;;;13.65;12.35;;;28.50;62.40;;;;;;6225053;28;20053;-77
2021/06/09 08:09:45;;;;;;;14.38;13.07;;;28.70;61.30;;;;;;6225584;28;20129;-77
2021/06/09 08:12:50;;;;;;;16.48;13.32;;;29.00;60.30;;;;;;6226800;28;20439;-78
2021/06/09 08:15:54;;;;;;;12.30;11.05;;;29.20;60.00;;;;;;6205459;28;20174;-78
2021/06/09 08:18:55;;;;;;;17.60;13.18;;;29.70;59.20;;;;;;6205193;28;20089;-76
2021/06/09 08:21:57;;;;;;;14.65;13.15;;;30.20;58.20;;;;;;6204485;28;20058;-77
2021/06/09 08:24:58;;;;;;;14.73;12.65;;;30.40;57.80;;;;;;6203891;28;20046;-77
2021/06/09 08:28:01;;;;;;;13.43;12.10;;;30.80;56.60;;;;;;6203788;28;20081;-77
2021/06/09 08:31:05;;;;;;;14.50;13.18;;;31.20;55.40;;;;;;6203187;28;20110;-77
2021/06/09 08:34:07;;;;;;;15.32;13.77;;;31.40;54.20;;;;;;6203770;28;20043;-77
2021/06/09 08:37:08;;;;;;;15.20;11.85;;;31.80;53.70;;;;;;6205929;28;20065;-77
2021/06/09 08:40:12;;;;;;;17.80;14.52;;;32.10;53.10;;;;;;6204488;28;20519;-77
2021/06/09 08:43:14;;;;;;;16.23;13.82;;;32.30;51.80;;;;;;6205019;28;20070;-77
2021/06/09 08:46:18;;;;;;;17.50;12.40;;;32.10;51.50;;;;;;6203309;28;20046;-77
2021/06/09 08:49:21;;;;;;;13.82;12.43;;;32.00;52.20;;;;;;6203877;28;20090;-77
2021/06/09 08:52:24;;;;;;;14.00;12.77;;;32.10;51.70;;;;;;6205803;28;20061;-78
2021/06/09 08:55:26;;;;;;;15.40;13.80;;;32.20;51.50;;;;;;6204875;28;20515;-78
2021/06/09 08:58:28;;;;;;;12.85;11.77;;;32.30;50.70;;;;;;6204413;28;20070;-77
2021/06/09 09:01:32;;;;;;;16.30;13.68;;;32.50;50.90;;;;;;6203610;28;20128;-77
2021/06/09 09:04:34;;;;;;;14.93;13.52;;;32.80;50.20;;;;;;6205071;28;20057;-77
2021/06/09 09:07:36;;;;;;;15.98;14.18;;;33.10;49.70;;;;;;6203143;28;20134;-77
2021/06/09 09:10:37;;;;;;;18.33;15.85;;;33.00;48.90;;;;;;6203747;28;20137;-77
2021/06/09 09:13:40;;;;;;;16.95;15.23;;;32.90;49.60;;;;;;6214444;28;20037;-77
2021/06/09 09:17:08;;;;;;;15.43;13.93;;;33.00;49.70;;;;;;6227482;28;20455;-77
2021/06/09 09:20:10;;;;;;;16.90;15.10;;;33.10;49.80;;;;;;6229155;28;20056;-77
2021/06/09 09:23:20;;;;;;;19.80;15.85;;;32.90;50.10;;;;;;6228965;28;20046;-77
2021/06/09 09:26:25;;;;;;;17.63;15.55;;;32.80;49.50;;;;;;6229538;28;20049;-77
2021/06/09 09:29:26;;;;;;;18.50;16.35;;;32.80;49.60;;;;;;6228647;28;20042;-77
2021/06/09 09:32:29;;;;;;;20.67;16.88;;;32.90;49.40;;;;;;6226800;28;20128;-76
2021/06/09 09:35:32;;;;;;;19.55;17.83;;;33.10;49.40;;;;;;6224350;28;20066;-77
2021/06/09 09:38:33;;;;;;;17.50;15.90;;;33.20;48.60;;;;;;6228360;28;20050;-77
2021/06/09 09:41:35;;;;;;;19.17;17.17;;;33.20;49.10;;;;;;6227659;28;20042;-77
2021/06/09 09:44:39;;;;;;;18.75;16.75;;;33.40;48.40;;;;;;6228106;28;20050;-77
2021/06/09 09:47:42;;;;;;;17.17;14.85;;;33.70;48.00;;;;;;6227788;28;20045;-77
2021/06/09 09:50:46;;;;;;;17.17;15.48;;;33.70;47.30;;;;;;6227111;28;20136;-77
2021/06/09 09:53:55;;;;;;;15.88;14.20;;;34.00;47.40;;;;;;6232097;28;20057;-77
2021/06/09 09:56:57;;;;;;;16.20;14.70;;;34.20;47.20;;;;;;6233562;28;20042;-78
2021/06/09 09:59:59;;;;;;;16.65;14.95;;;34.40;46.70;;;;;;6232355;28;20053;-78
2021/06/09 10:03:16;;;;;;;16.48;14.75;;;34.50;45.80;;;;;;6229068;28;20414;-78
2021/06/09 10:06:23;;;;;;;17.65;14.82;;;34.60;46.20;;;;;;6229819;28;20069;-77
2021/06/09 10:09:26;;;;;;;18.17;14.93;;;34.70;44.90;;;;;;6227965;28;20145;-77
2021/06/09 10:12:27;;;;;;;16.40;13.32;;;34.80;44.50;;;;;;6227944;28;20084;-78
2021/06/09 10:15:36;;;;;;;13.45;12.20;;;34.60;45.00;;;;;;6202831;28;20069;-77
2021/06/09 10:18:39;;;;;;;15.32;13.73;;;34.00;45.60;;;;;;6200963;28;20133;-77
2021/06/09 10:21:47;;;;;;;15.23;13.30;;;33.50;46.80;;;;;;6201226;28;20140;-77
2021/06/09 10:24:49;;;;;;;15.75;14.30;;;33.20;47.90;;;;;;6201965;28;20073;-77
2021/06/09 10:27:52;;;;;;;13.75;12.15;;;33.00;48.30;;;;;;6203519;28;20184;-77
2021/06/09 10:30:59;;;;;;;13.25;11.90;;;32.80;48.80;;;;;;6203840;28;20104;-77
2021/06/09 10:34:03;;;;;;;11.88;10.18;;;32.90;49.10;;;;;;6204371;28;20121;-77
2021/06/09 10:37:07;;;;;;;10.35;9.35;;;32.50;47.90;;;;;;6202521;28;20058;-77
2021/06/09 10:40:10;;;;;;;12.38;11.15;;;32.50;48.10;;;;;;6201045;28;20060;-77
2021/06/09 10:43:12;;;;;;;14.73;13.23;;;32.80;47.00;;;;;;6201266;28;20131;-76
2021/06/09 10:46:19;;;;;;;13.88;12.55;;;32.90;47.70;;;;;;6201138;28;20615;-77
2021/06/09 10:49:24;;;;;;;13.40;12.20;;;32.70;48.90;;;;;;6204338;28;20046;-77
2021/06/09 10:52:25;;;;;;;16.40;11.82;;;32.10;49.60;;;;;;6201199;28;20050;-77
2021/06/09 10:55:27;;;;;;;13.05;11.70;;;31.60;49.60;;;;;;6201012;28;20070;-77
2021/06/09 10:58:28;;;;;;;11.27;9.48;;;31.30;51.00;;;;;;6200395;28;20085;-77
2021/06/09 11:01:30;;;;;;;9.05;8.25;;;31.20;50.20;;;;;;6199492;28;20526;-77
2021/06/09 11:04:38;;;;;;;11.55;10.45;;;31.30;49.40;;;;;;6200597;28;20072;-77
2021/06/09 11:07:42;;;;;;;11.13;9.25;;;31.30;49.90;;;;;;6201043;28;20054;-77
2021/06/09 11:10:45;;;;;;;9.65;8.85;;;31.20;50.30;;;;;;6199686;28;20042;-77
2021/06/09 11:13:47;;;;;;;9.57;8.65;;;30.90;49.90;;;;;;6210650;28;20042;-76
2021/06/09 11:16:50;;;;;;;8.98;8.13;;;30.60;49.50;;;;;;6223095;28;20480;-77
2021/06/09 11:19:56;;;;;;;11.48;10.25;;;30.30;50.70;;;;;;6224947;28;20137;-77
2021/06/09 11:22:59;;;;;;;9.25;8.40;;;30.20;50.90;;;;;;6222725;28;20081;-76
2021/06/09 11:26:02;;;;;;;15.05;10.68;;;30.10;51.90;;;;;;6223057;28;20058;-77
2021/06/09 11:29:28;;;;;;;9.80;8.82;;;30.00;52.20;;;;;;6222675;28;20415;-77
2021/06/09 11:32:29;;;;;;;8.52;7.75;;;29.90;52.00;;;;;;6222798;28;20587;-77
2021/06/09 11:35:46;;;;;;;9.40;7.72;;;29.80;51.70;;;;;;6224154;28;20100;-77
2021/06/09 11:38:50;;;;;;;9.20;7.40;;;29.50;52.10;;;;;;6223945;28;20538;-77
2021/06/09 11:41:53;;;;;;;8.00;7.25;;;29.30;52.50;;;;;;6223906;28;20077;-77
2021/06/09 11:44:54;;;;;;;7.88;7.18;;;29.10;52.40;;;;;;6223691;28;20053;-77
2021/06/09 11:48:17;;;;;;;8.05;7.28;;;28.90;52.60;;;;;;6227545;28;20049;-76
2021/06/09 11:51:30;;;;;;;8.13;6.93;;;28.80;53.60;;;;;;6227674;28;20041;-77
2021/06/09 11:54:33;;;;;;;8.80;8.00;;;28.70;54.10;;;;;;6229761;28;20654;-77
2021/06/09 11:57:34;;;;;;;8.95;8.07;;;28.60;54.60;;;;;;6229736;28;20104;-76
2021/06/09 12:00:59;;;;;;;11.38;9.93;;;28.50;55.50;;;;;;6229200;28;20060;-77
2021/06/09 12:04:14;;;;;;;11.48;10.27;;;28.50;55.90;;;;;;6229725;28;20125;-77
2021/06/09 12:07:24;;;;;;;12.07;10.75;;;28.60;56.40;;;;;;6228507;28;20064;-77
2021/06/09 12:10:26;;;;;;;13.43;12.15;;;28.60;57.10;;;;;;6228079;28;20573;-77
2021/06/09 12:13:27;;;;;;;13.45;11.25;;;28.70;57.40;;;;;;6220442;28;20053;-77
2021/06/09 12:16:29;;;;;;;14.43;11.50;;;28.80;57.10;;;;;;6205215;28;20089;-77
2021/06/09 12:19:33;;;;;;;11.18;10.15;;;29.00;56.40;;;;;;6203623;28;20563;-77
2021/06/09 12:22:40;;;;;;;14.25;10.07;;;29.30;55.50;;;;;;6203710;28;20544;-77
2021/06/09 12:25:42;;;;;;;12.88;11.60;;;29.60;55.20;;;;;;6203388;28;20102;-77
2021/06/09 12:28:43;;;;;;;11.75;10.75;;;29.90;54.80;;;;;;6203410;28;20046;-77
2021/06/09 12:31:45;;;;;;;11.50;10.43;;;30.10;54.00;;;;;;6203512;28;20093;-77
2021/06/09 12:34:56;;;;;;;10.98;9.05;;;30.20;53.80;;;;;;6203703;28;20046;-77
2021/06/09 12:38:02;;;;;;;10.43;8.70;;;30.40;52.90;;;;;;6203400;28;20046;-77
2021/06/09 12:41:04;;;;;;;9.40;8.50;;;30.40;52.80;;;;;;6203138;28;20236;-76
2021/06/09 12:44:12;;;;;;;9.98;9.07;;;30.50;52.30;;;;;;6203540;28;20644;-77
2021/06/09 12:47:22;;;;;;;11.15;10.15;;;30.70;51.40;;;;;;6203484;28;20042;-77
2021/06/09 12:50:25;;;;;;;9.55;7.45;;;30.50;51.60;;;;;;6203429;28;20073;-77
2021/06/09 12:53:29;;;;;;;7.18;6.47;;;30.50;51.60;;;;;;6235274;23;20145;-76
2021/06/09 12:56:31;;;;;;;7.32;6.63;;;30.70;51.30;;;;;;6225216;28;20060;-77
2021/06/09 12:59:34;;;;;;;7.05;6.50;;;30.90;50.50;;;;;;6225294;28;20125;-77
2021/06/09 13:02:35;;;;;;;6.45;5.78;;;31.10;47.90;;;;;;6226727;28;20144;-78
2021/06/09 13:05:37;;;;;;;5.97;4.93;;;31.20;48.40;;;;;;6225989;28;20460;-78
2021/06/09 13:08:41;;;;;;;6.72;6.20;;;31.50;45.90;;;;;;6227289;28;20054;-78
2021/06/09 13:11:45;;;;;;;5.32;4.93;;;31.30;46.80;;;;;;6230173;28;20042;-78
2021/06/09 13:14:48;;;;;;;7.07;6.47;;;31.40;47.40;;;;;;6229329;28;20129;-78
2021/06/09 13:17:50;;;;;;;8.18;7.38;;;31.50;49.20;;;;;;6228520;28;20042;-77
2021/06/09 13:20:51;;;;;;;8.07;5.60;;;31.20;48.60;;;;;;6232383;28;20107;-78
2021/06/09 13:23:57;;;;;;;6.32;5.13;;;31.10;49.10;;;;;;6236309;28;20050;-78
2021/06/09 13:27:04;;;;;;;7.10;6.40;;;31.20;48.30;;;;;;6229385;28;20049;-78
2021/06/09 13:30:08;;;;;;;5.63;5.10;;;31.40;48.40;;;;;;6242559;28;20129;-78
2021/06/09 13:33:09;;;;;;;6.07;5.40;;;31.50;47.30;;;;;;6241569;28;20053;-77
2021/06/09 13:36:17;;;;;;;4.82;4.43;;;31.50;46.80;;;;;;6252992;28;20077;-78
2021/06/09 13:39:21;;;;;;;5.13;4.63;;;31.70;44.20;;;;;;6255315;28;20046;-78
2021/06/09 13:42:30;;;;;;;5.32;4.88;;;31.70;44.80;;;;;;6261408;28;20050;-78
2021/06/09 13:45:36;;;;;;;4.55;4.20;;;31.60;45.00;;;;;;6257906;28;20395;-79
2021/06/09 13:48:47;;;;;;;7.45;4.68;;;31.60;44.70;;;;;;6255513;28;20079;-78
2021/06/09 13:51:49;;;;;;;6.88;4.97;;;31.60;44.70;;;;;;6254898;28;20060;-78
2021/06/09 13:54:53;;;;;;;6.78;4.95;;;31.50;45.20;;;;;;6253958;28;20111;-78
2021/06/09 13:57:55;;;;;;;9.30;4.40;;;31.50;45.30;;;;;;6254692;28;20049;-77
2021/06/09 14:00:59;;;;;;;4.63;4.13;;;31.50;46.80;;;;;;6255336;28;20117;-78
2021/06/09 14:04:00;;;;;;;5.47;5.00;;;31.60;45.40;;;;;;6256821;28;20069;-78
2021/06/09 14:07:03;;;;;;;4.60;4.20;;;31.70;45.00;;;;;;6254332;28;20068;-78
2021/06/09 14:10:09;;;;;;;4.43;4.13;;;31.50;44.10;;;;;;6255129;28;20106;-79
2021/06/09 14:13:16;;;;;;;5.25;4.50;;;31.30;45.10;;;;;;6256453;28;20069;-78
2021/06/09 14:16:19;;;;;;;6.53;5.88;;;31.10;46.10;;;;;;6256337;28;20176;-79
2021/06/09 14:19:25;;;;;;;6.43;5.22;;;31.10;45.70;;;;;;6251368;28;20041;-78
2021/06/09 14:22:29;;;;;;;5.95;5.30;;;31.40;45.80;;;;;;6257748;28;20099;-78
2021/06/09 14:25:36;;;;;;;6.05;5.30;;;31.80;44.80;;;;;;6257946;28;20117;-79
2021/06/09 14:28:39;;;;;;;5.53;5.03;;;32.00;44.40;;;;;;6260353;28;20073;-79
2021/06/09 14:31:41;;;;;;;4.88;4.15;;;32.20;44.40;;;;;;6258417;28;20085;-78
2021/06/09 14:34:42;;;;;;;5.78;5.10;;;32.30;44.40;;;;;;6253285;28;20048;-78
2021/06/09 14:37:43;;;;;;;5.38;4.97;;;32.30;43.40;;;;;;6253312;28;20045;-77
2021/06/09 14:40:47;;;;;;;7.82;6.70;;;32.30;43.60;;;;;;6252754;28;20196;-78
2021/06/09 14:43:57;;;;;;;5.68;4.90;;;32.30;44.20;;;;;;6253697;28;20767;-79
2021/06/09 14:47:07;;;;;;;6.63;5.10;;;32.20;44.40;;;;;;6253358;28;20056;-80
2021/06/09 14:50:10;;;;;;;5.60;5.07;;;32.10;44.10;;;;;;6253755;28;20053;-79
2021/06/09 14:53:11;;;;;;;5.38;4.80;;;31.90;44.50;;;;;;6254907;28;20572;-77
2021/06/09 14:56:15;;;;;;;6.88;5.22;;;31.90;44.80;;;;;;6254861;28;20499;-79
2021/06/09 14:59:16;;;;;;;7.15;5.25;;;32.00;43.50;;;;;;6253249;28;20070;-78
2021/06/09 15:02:18;;;;;;;5.05;4.65;;;32.00;44.50;;;;;;6254076;28;20077;-79
2021/06/09 15:05:21;;;;;;;5.20;4.68;;;32.00;45.30;;;;;;6253504;28;20056;-78
2021/06/09 15:08:23;;;;;;;5.93;4.68;;;32.20;44.70;;;;;;6254483;28;20109;-77
2021/06/09 15:11:26;;;;;;;5.40;4.63;;;32.20;44.40;;;;;;6253614;28;20095;-79
2021/06/09 15:14:27;;;;;;;6.30;5.70;;;32.20;44.80;;;;;;6254144;28;20045;-79
2021/06/09 15:17:29;;;;;;;6.43;5.85;;;32.00;44.70;;;;;;6254159;28;20041;-78
2021/06/09 15:20:31;;;;;;;7.38;5.72;;;31.70;45.30;;;;;;6255367;28;20111;-78
2021/06/09 15:23:33;;;;;;;6.63;4.95;;;31.50;46.30;;;;;;6250428;28;20037;-78
2021/06/09 15:26:36;;;;;;;5.93;5.40;;;31.20;46.30;;;;;;6253612;28;20076;-77
2021/06/09 15:29:37;;;;;;;5.25;4.63;;;30.90;46.00;;;;;;6253185;28;20063;-78
2021/06/09 15:32:39;;;;;;;4.03;3.72;;;30.10;45.60;;;;;;6252500;28;20754;-78
2021/06/09 15:35:41;;;;;;;7.45;4.63;;;29.50;46.90;;;;;;6251333;28;20117;-78